PWSweather.com
Personal Weather Stations
Station Observations
KMIEASTT1
Tawas Bay, East Tawas, MI 48730

Tawas BayEast Tawas, MI 48730

Lat: 44.28, Lon: -83.48

Elevation: 600

Station Type: Davis VantagePro

http://www.tawasbayweather.com

Latest ConditionsUpdated 11:15:11 AM EDT Thursday, Apr 17, 2014
Currently Today's Max Today's Min Today's Average
Temperature 37.5°F3.1°C 37.5°F3.1°C 34.3°F1.3°C 35.0°F1.7°C
Dew Point 32.2°F0.1°C 32.2°F0.1°C 27.7°F-2.4°C 29.4°F-1.4°C
Winds 10.0 mph ESE16.1 kmh ESE 21.0 mph E33.8 kmh E - 14.0 mph 22.5 kmh
Wind Gusts 13.0 mph20.9 kmh 23.0 mph37.0 kmh - -
Humidity 81% 83% 74% 80%
Pressure 30.39 in1029.1 mb 30.46 in1031.5 mb 30.39 in1029.1 mb -
Hour Temp Dew Point Humidity Winds Wind Gusts Pressure Precip Precip Rate Daily Precip Total
11:15 AM 37.5°F3.1°C 32.2°F0.1°C 81% 10.0 mph ESE16.1 kmh ESE 13.0 mph20.9 kmh 30.39 in1029.1 mb 0.00 in0.0 mm 0.00 in/hr0.0 mm/hr 0.00 in0.0 mm
11:00 AM 37.3°F2.9°C 32.0°F0.0°C 81% 9.0 mph ESE14.5 kmh ESE 13.0 mph20.9 kmh 30.39 in1029.1 mb 0.00 in0.0 mm 0.00 in/hr0.0 mm/hr 0.00 in0.0 mm
10:45 AM 37.1°F2.8°C 31.5°F-0.3°C 80% 9.0 mph ESE14.5 kmh ESE 13.0 mph20.9 kmh 30.40 in1029.5 mb 0.00 in0.0 mm 0.00 in/hr0.0 mm/hr 0.00 in0.0 mm
10:30 AM 36.8°F2.7°C 31.2°F-0.4°C 80% 9.0 mph SE14.5 kmh SE 11.0 mph17.7 kmh 30.41 in1029.8 mb 0.00 in0.0 mm 0.00 in/hr0.0 mm/hr 0.00 in0.0 mm
10:15 AM 36.6°F2.6°C 31.0°F-0.6°C 80% 12.0 mph ESE19.3 kmh ESE 14.0 mph22.5 kmh 30.41 in1029.8 mb 0.00 in0.0 mm 0.00 in/hr0.0 mm/hr 0.00 in0.0 mm
10:00 AM 36.3°F2.4°C 30.4°F-0.9°C 79% 14.0 mph ESE22.5 kmh ESE 15.0 mph24.1 kmh 30.41 in1029.8 mb 0.00 in0.0 mm 0.00 in/hr0.0 mm/hr 0.00 in0.0 mm
09:45 AM 36.0°F2.2°C 30.8°F-0.7°C 81% 11.0 mph ESE17.7 kmh ESE 16.0 mph25.7 kmh 30.42 in1030.1 mb 0.00 in0.0 mm 0.00 in/hr0.0 mm/hr 0.00 in0.0 mm
09:30 AM 35.6°F2.0°C 30.4°F-0.9°C 81% 11.0 mph ESE17.7 kmh ESE 15.0 mph24.1 kmh 30.42 in1030.1 mb 0.00 in0.0 mm 0.00 in/hr0.0 mm/hr 0.00 in0.0 mm
09:15 AM 35.4°F1.9°C 30.8°F-0.7°C 83% 13.0 mph ESE20.9 kmh ESE 17.0 mph27.4 kmh 30.43 in1030.5 mb 0.00 in0.0 mm 0.00 in/hr0.0 mm/hr 0.00 in0.0 mm
09:00 AM 35.1°F1.7°C 30.2°F-1.0°C 82% 16.0 mph E25.7 kmh E 19.0 mph30.6 kmh 30.42 in1030.1 mb 0.00 in0.0 mm 0.00 in/hr0.0 mm/hr 0.00 in0.0 mm
08:45 AM 35.0°F1.7°C 30.4°F-0.9°C 83% 21.0 mph E33.8 kmh E 23.0 mph37.0 kmh 30.42 in1030.1 mb 0.00 in0.0 mm 0.00 in/hr0.0 mm/hr 0.00 in0.0 mm
08:30 AM 34.7°F1.5°C 29.8°F-1.2°C 82% 17.0 mph E27.4 kmh E 23.0 mph37.0 kmh 30.41 in1029.8 mb 0.00 in0.0 mm 0.00 in/hr0.0 mm/hr 0.00 in0.0 mm
08:15 AM 34.5°F1.4°C 29.9°F-1.2°C 83% 17.0 mph ESE27.4 kmh ESE 23.0 mph37.0 kmh 30.42 in1030.1 mb 0.00 in0.0 mm 0.00 in/hr0.0 mm/hr 0.00 in0.0 mm
08:00 AM 34.5°F1.4°C 29.6°F-1.3°C 82% 18.0 mph E29.0 kmh E 22.0 mph35.4 kmh 30.42 in1030.1 mb 0.00 in0.0 mm 0.00 in/hr0.0 mm/hr 0.00 in0.0 mm
07:45 AM 34.4°F1.3°C 29.2°F-1.6°C 81% 17.0 mph ESE27.4 kmh ESE 22.0 mph35.4 kmh 30.43 in1030.5 mb 0.00 in0.0 mm 0.00 in/hr0.0 mm/hr 0.00 in0.0 mm
07:30 AM 34.3°F1.3°C 28.8°F-1.8°C 80% 15.0 mph ESE24.1 kmh ESE 21.0 mph33.8 kmh 30.43 in1030.5 mb 0.00 in0.0 mm 0.00 in/hr0.0 mm/hr 0.00 in0.0 mm
07:15 AM 34.3°F1.3°C 29.4°F-1.4°C 82% 15.0 mph ESE24.1 kmh ESE 22.0 mph35.4 kmh 30.44 in1030.8 mb 0.00 in0.0 mm 0.00 in/hr0.0 mm/hr 0.00 in0.0 mm
07:00 AM 34.4°F1.3°C 29.2°F-1.6°C 81% 14.0 mph ESE22.5 kmh ESE 19.0 mph30.6 kmh 30.44 in1030.8 mb 0.00 in0.0 mm 0.00 in/hr0.0 mm/hr 0.00 in0.0 mm
06:45 AM 34.4°F1.3°C 29.2°F-1.6°C 81% 13.0 mph ESE20.9 kmh ESE 19.0 mph30.6 kmh 30.45 in1031.2 mb 0.00 in0.0 mm 0.00 in/hr0.0 mm/hr 0.00 in0.0 mm
06:30 AM 34.4°F1.3°C 29.8°F-1.2°C 83% 14.0 mph ESE22.5 kmh ESE 17.0 mph27.4 kmh 30.45 in1031.2 mb 0.00 in0.0 mm 0.00 in/hr0.0 mm/hr 0.00 in0.0 mm
06:15 AM 34.4°F1.3°C 29.5°F-1.4°C 82% 15.0 mph ESE24.1 kmh ESE 18.0 mph29.0 kmh 30.45 in1031.2 mb 0.00 in0.0 mm 0.00 in/hr0.0 mm/hr 0.00 in0.0 mm
06:00 AM 34.4°F1.3°C 29.2°F-1.6°C 81% 16.0 mph ESE25.7 kmh ESE 17.0 mph27.4 kmh 30.45 in1031.2 mb 0.00 in0.0 mm 0.00 in/hr0.0 mm/hr 0.00 in0.0 mm
05:45 AM 34.4°F1.3°C 29.5°F-1.4°C 82% 15.0 mph SE24.1 kmh SE 18.0 mph29.0 kmh 30.45 in1031.2 mb 0.00 in0.0 mm 0.00 in/hr0.0 mm/hr 0.00 in0.0 mm
05:30 AM 34.4°F1.3°C 29.5°F-1.4°C 82% 14.0 mph ESE22.5 kmh ESE 18.0 mph29.0 kmh 30.45 in1031.2 mb 0.00 in0.0 mm 0.00 in/hr0.0 mm/hr 0.00 in0.0 mm
05:15 AM 34.4°F1.3°C 29.8°F-1.2°C 83% 14.0 mph SE22.5 kmh SE 19.0 mph30.6 kmh 30.45 in1031.2 mb 0.00 in0.0 mm 0.00 in/hr0.0 mm/hr 0.00 in0.0 mm
05:00 AM 34.3°F1.3°C 29.4°F-1.4°C 82% 15.0 mph ESE24.1 kmh ESE 19.0 mph30.6 kmh 30.45 in1031.2 mb 0.00 in0.0 mm 0.00 in/hr0.0 mm/hr 0.00 in0.0 mm
04:45 AM 34.3°F1.3°C 29.1°F-1.6°C 81% 15.0 mph SE24.1 kmh SE 18.0 mph29.0 kmh 30.45 in1031.2 mb 0.00 in0.0 mm 0.00 in/hr0.0 mm/hr 0.00 in0.0 mm
04:30 AM 34.3°F1.3°C 28.8°F-1.8°C 80% 14.0 mph SE22.5 kmh SE 19.0 mph30.6 kmh 30.46 in1031.5 mb 0.00 in0.0 mm 0.00 in/hr0.0 mm/hr 0.00 in0.0 mm
04:15 AM 34.4°F1.3°C 28.9°F-1.7°C 80% 14.0 mph ESE22.5 kmh ESE 16.0 mph25.7 kmh 30.46 in1031.5 mb 0.00 in0.0 mm 0.00 in/hr0.0 mm/hr 0.00 in0.0 mm
04:00 AM 34.4°F1.3°C 28.3°F-2.1°C 78% 15.0 mph SE24.1 kmh SE 16.0 mph25.7 kmh 30.46 in1031.5 mb 0.00 in0.0 mm 0.00 in/hr0.0 mm/hr 0.00 in0.0 mm
03:45 AM 34.4°F1.3°C 28.0°F-2.2°C 77% 13.0 mph ESE20.9 kmh ESE 18.0 mph29.0 kmh 30.45 in1031.2 mb 0.00 in0.0 mm 0.00 in/hr0.0 mm/hr 0.00 in0.0 mm
03:30 AM 34.3°F1.3°C 27.9°F-2.3°C 77% 16.0 mph E25.7 kmh E 18.0 mph29.0 kmh 30.44 in1030.8 mb 0.00 in0.0 mm 0.00 in/hr0.0 mm/hr 0.00 in0.0 mm
03:15 AM 34.4°F1.3°C 28.3°F-2.1°C 78% 16.0 mph ESE25.7 kmh ESE 17.0 mph27.4 kmh 30.44 in1030.8 mb 0.00 in0.0 mm 0.00 in/hr0.0 mm/hr 0.00 in0.0 mm
03:00 AM 34.5°F1.4°C 28.1°F-2.2°C 77% 15.0 mph ESE24.1 kmh ESE 19.0 mph30.6 kmh 30.45 in1031.2 mb 0.00 in0.0 mm 0.00 in/hr0.0 mm/hr 0.00 in0.0 mm
02:45 AM 34.5°F1.4°C 28.7°F-1.8°C 79% 13.0 mph SE20.9 kmh SE 15.0 mph24.1 kmh 30.45 in1031.2 mb 0.00 in0.0 mm 0.00 in/hr0.0 mm/hr 0.00 in0.0 mm
02:30 AM 34.5°F1.4°C 29.3°F-1.5°C 81% 13.0 mph E20.9 kmh E 14.0 mph22.5 kmh 30.45 in1031.2 mb 0.00 in0.0 mm 0.00 in/hr0.0 mm/hr 0.00 in0.0 mm
02:15 AM 34.5°F1.4°C 29.3°F-1.5°C 81% 13.0 mph ESE20.9 kmh ESE 15.0 mph24.1 kmh 30.45 in1031.2 mb 0.00 in0.0 mm 0.00 in/hr0.0 mm/hr 0.00 in0.0 mm
02:00 AM 34.9°F1.6°C 29.1°F-1.6°C 79% 14.0 mph ESE22.5 kmh ESE 17.0 mph27.4 kmh 30.45 in1031.2 mb 0.00 in0.0 mm 0.00 in/hr0.0 mm/hr 0.00 in0.0 mm
01:45 AM 35.2°F1.8°C 29.4°F-1.4°C 79% 12.0 mph SE19.3 kmh SE 17.0 mph27.4 kmh 30.45 in1031.2 mb 0.00 in0.0 mm 0.00 in/hr0.0 mm/hr 0.00 in0.0 mm
01:30 AM 35.2°F1.8°C 29.4°F-1.4°C 79% 14.0 mph SE22.5 kmh SE 17.0 mph27.4 kmh 30.45 in1031.2 mb 0.00 in0.0 mm 0.00 in/hr0.0 mm/hr 0.00 in0.0 mm
01:15 AM 35.2°F1.8°C 28.4°F-2.0°C 76% 13.0 mph SE20.9 kmh SE 18.0 mph29.0 kmh 30.45 in1031.2 mb 0.00 in0.0 mm 0.00 in/hr0.0 mm/hr 0.00 in0.0 mm
01:00 AM 35.3°F1.8°C 28.2°F-2.1°C 75% 14.0 mph SE22.5 kmh SE 20.0 mph32.2 kmh 30.45 in1031.2 mb 0.00 in0.0 mm 0.00 in/hr0.0 mm/hr 0.00 in0.0 mm
12:45 AM 35.2°F1.8°C 27.8°F-2.3°C 74% 12.0 mph SE19.3 kmh SE 21.0 mph33.8 kmh 30.45 in1031.2 mb 0.00 in0.0 mm 0.00 in/hr0.0 mm/hr 0.00 in0.0 mm
12:30 AM 35.1°F1.7°C 28.0°F-2.2°C 75% 14.0 mph SE22.5 kmh SE 17.0 mph27.4 kmh 30.46 in1031.5 mb 0.00 in0.0 mm 0.00 in/hr0.0 mm/hr 0.00 in0.0 mm
12:15 AM 35.1°F1.7°C 27.7°F-2.4°C 74% 16.0 mph SE25.7 kmh SE 20.0 mph32.2 kmh 30.45 in1031.2 mb 0.00 in0.0 mm 0.00 in/hr0.0 mm/hr 0.00 in0.0 mm
12:00 AM 35.2°F1.8°C 29.0°F-1.7°C 78% 16.0 mph ESE25.7 kmh ESE 17.0 mph27.4 kmh 30.46 in1031.5 mb 0.00 in0.0 mm 0.00 in/hr0.0 mm/hr 0.00 in0.0 mm